createdAt,value
2022-12-31T00:02:26.745Z,11.78
2022-12-31T00:07:23.650Z,11.76
2022-12-31T00:12:19.986Z,11.85
2022-12-31T00:17:16.392Z,11.75
2022-12-31T00:22:12.834Z,11.64
2022-12-31T00:27:09.209Z,11.53
2022-12-31T00:32:05.872Z,11.46
2022-12-31T00:37:02.228Z,11.49
2022-12-31T00:41:58.681Z,11.45
2022-12-31T00:46:55.029Z,11.47
2022-12-31T00:51:51.628Z,11.37
2022-12-31T00:56:48.046Z,11.38
2022-12-31T01:01:44.517Z,11.40
2022-12-31T01:06:42.283Z,11.46
2022-12-31T01:11:38.674Z,11.45
2022-12-31T01:16:39.889Z,11.44
2022-12-31T01:21:37.837Z,11.36
2022-12-31T01:26:34.593Z,11.30
2022-12-31T01:31:32.802Z,11.38
2022-12-31T01:36:31.293Z,11.31
2022-12-31T01:41:31.213Z,11.27
2022-12-31T01:46:48.432Z,11.28
2022-12-31T01:51:49.594Z,11.23
2022-12-31T01:56:48.664Z,11.33
2022-12-31T02:01:48.125Z,11.29
2022-12-31T02:06:51.138Z,11.28
2022-12-31T02:11:47.757Z,11.28
2022-12-31T02:16:54.751Z,11.27
2022-12-31T02:21:56.237Z,11.26
2022-12-31T02:27:01.803Z,11.20
2022-12-31T02:32:08.355Z,11.20
2022-12-31T02:37:08.939Z,11.22
2022-12-31T02:42:05.664Z,11.20
2022-12-31T02:47:15.648Z,11.22
2022-12-31T02:52:31.598Z,11.24
2022-12-31T02:57:39.388Z,11.31
2022-12-31T03:02:40.908Z,11.33
2022-12-31T03:07:40.592Z,11.32
2022-12-31T03:12:46.235Z,11.33
2022-12-31T03:17:42.571Z,11.40
2022-12-31T03:22:42.198Z,11.50
2022-12-31T03:27:38.620Z,11.61
2022-12-31T03:32:35.243Z,11.69
2022-12-31T03:37:31.712Z,11.90
2022-12-31T03:42:28.044Z,12.06
2022-12-31T03:47:24.425Z,12.18
2022-12-31T03:52:21.106Z,12.32
2022-12-31T03:57:17.575Z,12.51
2022-12-31T04:02:14.080Z,12.69
2022-12-31T04:07:10.697Z,12.80
2022-12-31T04:12:07.953Z,13.02
2022-12-31T04:17:04.328Z,13.16
2022-12-31T04:22:00.767Z,12.65
2022-12-31T04:27:02.097Z,12.06
2022-12-31T04:32:02.459Z,11.87
2022-12-31T04:36:59.028Z,11.77
2022-12-31T04:41:55.575Z,11.71
2022-12-31T04:46:52.013Z,11.67
2022-12-31T04:51:48.355Z,11.64
2022-12-31T04:56:44.713Z,11.56
2022-12-31T05:01:41.226Z,11.59
2022-12-31T05:06:37.780Z,11.56
2022-12-31T05:11:35.643Z,11.57
2022-12-31T05:16:32.050Z,11.48
2022-12-31T05:21:28.886Z,11.44
2022-12-31T05:26:25.341Z,11.36
2022-12-31T05:31:22.073Z,11.38
2022-12-31T05:36:18.560Z,11.39
2022-12-31T05:41:15.098Z,11.41
2022-12-31T05:46:11.543Z,11.49
2022-12-31T05:51:07.892Z,11.57
2022-12-31T05:56:04.403Z,11.82
2022-12-31T06:01:00.806Z,12.04
2022-12-31T06:05:57.227Z,12.21
2022-12-31T06:10:53.605Z,12.25
2022-12-31T06:15:49.991Z,12.37
2022-12-31T06:20:46.387Z,12.39
2022-12-31T06:25:42.800Z,12.52
2022-12-31T06:30:39.165Z,12.64
2022-12-31T06:35:35.543Z,12.83
2022-12-31T06:40:31.903Z,13.06
2022-12-31T06:45:28.286Z,13.30
2022-12-31T06:50:24.669Z,13.71
2022-12-31T06:55:21.215Z,14.11
2022-12-31T07:00:18.252Z,14.33
2022-12-31T07:05:44.434Z,14.83
2022-12-31T07:10:56.132Z,14.91
2022-12-31T07:16:20.616Z,14.87
2022-12-31T07:21:25.141Z,14.89
2022-12-31T07:26:43.435Z,14.84
2022-12-31T07:32:02.699Z,14.68
2022-12-31T07:37:01.862Z,14.74
2022-12-31T07:41:58.202Z,14.68
2022-12-31T07:47:00.236Z,14.75
2022-12-31T07:51:57.063Z,14.91
2022-12-31T07:56:53.680Z,15.17
2022-12-31T08:02:01.920Z,15.22
2022-12-31T08:07:09.730Z,15.38
2022-12-31T08:12:08.096Z,15.45
2022-12-31T08:17:04.769Z,15.43
2022-12-31T08:22:33.679Z,15.45
2022-12-31T08:28:00.314Z,15.51
2022-12-31T08:33:52.564Z,15.48
2022-12-31T08:39:36.482Z,15.64
2022-12-31T08:44:37.282Z,15.68
2022-12-31T08:49:35.335Z,15.81
2022-12-31T08:54:31.676Z,15.77
2022-12-31T08:59:40.262Z,15.84
2022-12-31T09:04:49.386Z,15.86
2022-12-31T09:10:11.171Z,15.98
2022-12-31T09:15:33.809Z,15.85
2022-12-31T09:20:42.750Z,15.94
2022-12-31T09:25:55.866Z,15.94
2022-12-31T09:31:13.260Z,15.96
2022-12-31T09:36:22.095Z,16.11
2022-12-31T09:41:24.565Z,16.14
2022-12-31T09:46:42.216Z,16.20
2022-12-31T09:51:44.876Z,16.21
2022-12-31T09:57:23.352Z,16.24
2022-12-31T10:02:47.451Z,16.29
2022-12-31T10:08:04.223Z,16.42
2022-12-31T10:13:20.765Z,16.42
2022-12-31T10:18:35.321Z,16.43
2022-12-31T10:23:59.963Z,16.38
2022-12-31T10:29:06.075Z,16.41
2022-12-31T10:34:21.299Z,16.23
2022-12-31T10:39:39.456Z,16.17
2022-12-31T10:44:54.261Z,16.07
2022-12-31T10:50:18.300Z,16.21
2022-12-31T10:55:32.798Z,16.11
2022-12-31T11:00:34.845Z,16.12
2022-12-31T11:05:56.598Z,16.11
2022-12-31T11:11:14.181Z,16.05
2022-12-31T11:16:20.639Z,16.03
2022-12-31T11:21:46.348Z,16.02
2022-12-31T11:27:01.501Z,16.10
2022-12-31T11:32:20.213Z,16.24
2022-12-31T11:37:40.636Z,16.24
2022-12-31T11:42:49.699Z,16.30
2022-12-31T11:48:30.042Z,16.42
2022-12-31T11:53:41.073Z,16.76
2022-12-31T11:58:37.516Z,16.78
2022-12-31T12:03:38.475Z,16.71
2022-12-31T12:08:36.658Z,16.62
2022-12-31T12:13:33.962Z,16.65
2022-12-31T12:18:54.285Z,16.64
2022-12-31T12:24:19.821Z,16.62
2022-12-31T12:29:22.388Z,16.60
2022-12-31T12:34:34.244Z,16.61
2022-12-31T12:39:32.817Z,16.47
2022-12-31T12:44:29.685Z,16.51
2022-12-31T12:49:29.348Z,16.62
2022-12-31T12:54:34.285Z,16.61
2022-12-31T12:59:49.124Z,16.62
2022-12-31T13:05:13.572Z,16.59
2022-12-31T13:10:49.544Z,16.64
2022-12-31T13:15:59.036Z,16.64
2022-12-31T13:21:24.329Z,16.56
2022-12-31T13:26:29.877Z,16.50
2022-12-31T13:31:37.630Z,16.42
2022-12-31T13:36:38.430Z,16.38
2022-12-31T13:41:41.931Z,16.34
2022-12-31T13:47:04.152Z,16.19
2022-12-31T13:52:22.338Z,15.95
2022-12-31T13:57:30.064Z,15.74
2022-12-31T14:02:52.629Z,15.68
2022-12-31T14:07:59.331Z,15.61
2022-12-31T14:13:05.798Z,15.51
2022-12-31T14:18:13.656Z,15.42
2022-12-31T14:23:24.856Z,15.34
2022-12-31T14:28:27.333Z,15.28
2022-12-31T14:34:00.631Z,15.24
2022-12-31T14:39:18.494Z,15.16
2022-12-31T14:44:40.632Z,15.06
2022-12-31T14:50:00.006Z,14.94
2022-12-31T14:55:08.441Z,14.87
2022-12-31T15:00:23.624Z,14.65
2022-12-31T15:05:23.902Z,14.54
2022-12-31T15:10:52.775Z,14.47
2022-12-31T15:16:22.095Z,14.42
2022-12-31T15:21:37.315Z,14.45
2022-12-31T15:26:34.666Z,14.55
2022-12-31T15:31:33.168Z,14.66
2022-12-31T15:36:32.318Z,14.61
2022-12-31T15:42:18.594Z,14.62
2022-12-31T15:47:29.287Z,14.59
2022-12-31T15:52:50.434Z,14.53
2022-12-31T15:57:47.219Z,14.61
2022-12-31T16:02:45.260Z,14.50
2022-12-31T16:07:42.080Z,14.50
2022-12-31T16:12:44.665Z,14.58
2022-12-31T16:17:41.851Z,14.55
2022-12-31T16:22:39.721Z,14.54
2022-12-31T16:27:36.129Z,14.53
2022-12-31T16:32:38.413Z,14.52
2022-12-31T16:37:35.069Z,14.51
2022-12-31T16:42:31.413Z,14.40
2022-12-31T16:47:35.388Z,14.26
2022-12-31T16:52:35.642Z,14.17
2022-12-31T16:57:32.411Z,14.13
2022-12-31T17:02:40.262Z,14.08
2022-12-31T17:07:42.268Z,14.03
2022-12-31T17:13:25.628Z,14.04
2022-12-31T17:18:04.717Z,14.00
2022-12-31T17:23:06.579Z,14.00
2022-12-31T17:28:19.802Z,14.01
2022-12-31T17:33:22.109Z,14.01
2022-12-31T17:38:21.204Z,14.01
2022-12-31T17:43:22.774Z,14.20
2022-12-31T17:48:20.362Z,14.26
2022-12-31T17:53:18.129Z,14.31
2022-12-31T17:58:29.671Z,14.36
2022-12-31T18:03:26.495Z,14.53
2022-12-31T18:08:22.906Z,14.59
2022-12-31T18:13:22.691Z,14.63
2022-12-31T18:18:25.595Z,14.76
2022-12-31T18:23:26.133Z,14.71
2022-12-31T18:28:23.189Z,14.81
2022-12-31T18:33:22.226Z,14.76
2022-12-31T18:38:20.236Z,14.72
2022-12-31T18:43:18.001Z,14.78
2022-12-31T18:48:15.298Z,14.74
2022-12-31T18:53:17.369Z,14.77
2022-12-31T18:58:13.723Z,14.73
2022-12-31T19:03:21.899Z,14.75
2022-12-31T19:08:23.305Z,14.67
2022-12-31T19:13:20.163Z,14.60
2022-12-31T19:18:16.637Z,14.50
2022-12-31T19:23:18.858Z,14.59
2022-12-31T19:28:24.171Z,14.61
2022-12-31T19:33:20.543Z,14.55
2022-12-31T19:38:23.113Z,14.51
2022-12-31T19:43:22.117Z,14.61
2022-12-31T19:48:30.460Z,14.61
2022-12-31T19:53:28.811Z,14.59
2022-12-31T19:58:26.756Z,14.61
2022-12-31T20:03:23.369Z,14.65
2022-12-31T20:08:22.682Z,14.67
2022-12-31T20:13:19.035Z,14.62
2022-12-31T20:18:20.859Z,14.59
2022-12-31T20:23:17.258Z,14.48
2022-12-31T20:28:13.653Z,14.48
2022-12-31T20:33:13.207Z,14.55
2022-12-31T20:38:13.984Z,14.56
2022-12-31T20:43:10.812Z,14.56
2022-12-31T20:48:07.176Z,14.61
2022-12-31T20:53:03.537Z,14.59
2022-12-31T20:58:00.555Z,14.78
2022-12-31T21:03:06.710Z,14.83
2022-12-31T21:08:10.860Z,14.98
2022-12-31T21:13:07.260Z,14.92
2022-12-31T21:18:04.093Z,15.03
2022-12-31T21:23:00.794Z,15.05
2022-12-31T21:27:57.199Z,15.23
2022-12-31T21:32:53.689Z,15.14
2022-12-31T21:37:59.238Z,15.19
2022-12-31T21:42:57.704Z,15.19
2022-12-31T21:48:12.704Z,15.17
2022-12-31T21:53:09.059Z,15.14
2022-12-31T22:03:24.556Z,15.12
2022-12-31T22:08:22.053Z,15.11
2022-12-31T22:13:18.996Z,15.06
2022-12-31T22:18:17.743Z,14.98
2022-12-31T22:23:14.426Z,15.11
2022-12-31T22:28:40.390Z,15.08
2022-12-31T22:33:27.183Z,15.00
2022-12-31T22:38:23.524Z,14.96
2022-12-31T22:43:19.942Z,15.09
2022-12-31T22:48:16.277Z,15.09
2022-12-31T22:53:12.690Z,15.17
2022-12-31T22:58:09.017Z,15.19
2022-12-31T23:03:05.570Z,15.14
2022-12-31T23:08:07.963Z,15.26
2022-12-31T23:13:27.666Z,15.16
2022-12-31T23:18:42.760Z,15.16
2022-12-31T23:23:39.132Z,15.22
2022-12-31T23:28:35.682Z,15.13
2022-12-31T23:33:32.001Z,15.20
2022-12-31T23:38:28.901Z,15.07
2022-12-31T23:43:25.290Z,15.05
2022-12-31T23:48:21.897Z,14.99
2022-12-31T23:53:18.359Z,15.03
2022-12-31T23:58:15.311Z,15.10
